Time;durP1;ratioP1;P1;durP2;ratioP2;P2;SDS_P1;SDS_P2;PMS_P1;PMS_P2;Temp;Humidity;BMP_temperature;BMP_pressure;BME280_temperature;BME280_humidity;BME280_pressure;Samples;Min_cycle;Max_cycle;Signal;HPM_P1;HPM_P2
2022/05/22 00:01:53;;;;;;;4.90;4.17;;;;;;;;;;4931460;29;20983;-79
2022/05/22 00:04:20;;;;;;;4.87;4.37;;;;;;;;;;4931709;29;20848;-79
2022/05/22 00:06:46;;;;;;;4.60;4.20;;;;;;;;;;4921651;29;20994;-79
2022/05/22 00:09:13;;;;;;;4.20;3.80;;;;;;;;;;4934316;29;20421;-78
2022/05/22 00:11:39;;;;;;;4.17;3.77;;;;;;;;;;4933781;29;20458;-78
2022/05/22 00:14:06;;;;;;;6.67;4.00;;;;;;;;;;4923211;29;20538;-80
2022/05/22 00:16:37;;;;;;;4.00;3.70;;;;;;;;;;4935551;29;20447;-78
2022/05/22 00:19:05;;;;;;;4.57;4.23;;;;;;;;;;4924211;29;20512;-78
2022/05/22 00:21:32;;;;;;;4.83;4.00;;;;;;;;;;4926806;29;20475;-78
2022/05/22 00:23:58;;;;;;;5.07;4.67;;;;;;;;;;4914834;29;20461;-78
2022/05/22 00:26:25;;;;;;;4.53;4.00;;;;;;;;;;4933583;29;20480;-78
2022/05/22 00:28:51;;;;;;;4.87;4.40;;;;;;;;;;4917295;29;20483;-78
2022/05/22 00:31:18;;;;;;;6.37;4.80;;;;;;;;;;4917750;29;20447;-78
2022/05/22 00:33:46;;;;;;;5.33;4.37;;;;;;;;;;4939643;29;20467;-79
2022/05/22 00:36:12;;;;;;;4.43;4.00;;;;;;;;;;4920609;29;20441;-78
2022/05/22 00:38:39;;;;;;;7.00;5.60;;;;;;;;;;4901575;29;20459;-78
2022/05/22 00:41:06;;;;;;;5.57;4.50;;;;;;;;;;4918380;29;20792;-78
2022/05/22 00:43:34;;;;;;;4.67;3.90;;;;;;;;;;4900082;29;20460;-78
2022/05/22 00:46:02;;;;;;;4.40;4.00;;;;;;;;;;4933945;29;20470;-78
2022/05/22 00:48:29;;;;;;;4.90;4.17;;;;;;;;;;4901578;29;20444;-78
2022/05/22 00:51:00;;;;;;;3.93;3.53;;;;;;;;;;4933905;29;20536;-78
2022/05/22 00:53:33;;;;;;;4.77;4.37;;;;;;;;;;4920368;29;20542;-79
2022/05/22 00:56:01;;;;;;;5.33;4.40;;;;;;;;;;4936636;29;20451;-79
2022/05/22 00:58:30;;;;;;;5.03;4.27;;;;;;;;;;4937085;29;20448;-79
2022/05/22 01:00:57;;;;;;;4.90;4.30;;;;;;;;;;4919924;29;20468;-79
2022/05/22 01:03:28;;;;;;;5.13;4.73;;;;;;;;;;4933231;29;20906;-80
2022/05/22 01:05:57;;;;;;;5.53;4.23;;;;;;;;;;4904089;29;20472;-79
2022/05/22 01:08:24;;;;;;;6.53;5.30;;;;;;;;;;4920176;29;20432;-80
2022/05/22 01:10:53;;;;;;;6.90;5.30;;;;;;;;;;4923463;29;20460;-79
2022/05/22 01:13:22;;;;;;;5.87;5.30;;;;;;;;;;4936811;29;20444;-79
2022/05/22 01:15:49;;;;;;;6.67;5.33;;;;;;;;;;4934995;29;20449;-79
2022/05/22 01:18:16;;;;;;;6.07;5.57;;;;;;;;;;4916902;29;20963;-79
2022/05/22 01:20:46;;;;;;;5.30;4.80;;;;;;;;;;4909527;29;20457;-79
2022/05/22 01:23:14;;;;;;;5.70;5.20;;;;;;;;;;4922898;29;20464;-80
2022/05/22 01:25:40;;;;;;;6.20;5.70;;;;;;;;;;4913380;29;20479;-79
2022/05/22 01:28:07;;;;;;;6.80;5.87;;;;;;;;;;4934189;29;20491;-78
2022/05/22 01:30:34;;;;;;;6.00;5.50;;;;;;;;;;4905634;29;20455;-79
2022/05/22 01:33:03;;;;;;;6.23;5.73;;;;;;;;;;4919199;29;20485;-79
2022/05/22 01:35:30;;;;;;;6.17;5.10;;;;;;;;;;4936781;29;20439;-79
2022/05/22 01:38:01;;;;;;;9.33;6.90;;;;;;;;;;4907281;29;20488;-80
2022/05/22 01:40:29;;;;;;;10.60;6.50;;;;;;;;;;4912317;29;20546;-79
2022/05/22 01:42:56;;;;;;;7.03;6.33;;;;;;;;;;4897026;29;20456;-80
2022/05/22 01:45:25;;;;;;;8.80;6.83;;;;;;;;;;4919969;29;20795;-80
2022/05/22 01:47:53;;;;;;;8.13;6.37;;;;;;;;;;4902559;29;20786;-80
2022/05/22 01:50:25;;;;;;;6.17;5.67;;;;;;;;;;4909868;29;20504;-78
2022/05/22 01:52:53;;;;;;;7.23;6.53;;;;;;;;;;4932549;29;20460;-78
2022/05/22 01:55:21;;;;;;;7.00;6.33;;;;;;;;;;4927722;29;21007;-78
2022/05/22 01:57:50;;;;;;;6.97;6.40;;;;;;;;;;4915370;29;20456;-78
2022/05/22 02:00:20;;;;;;;7.33;6.63;;;;;;;;;;4912347;29;20452;-78
2022/05/22 02:02:47;;;;;;;8.13;6.63;;;;;;;;;;4926022;29;20499;-78
2022/05/22 02:05:29;;;;;;;7.10;6.40;;;;;;;;;;4934765;29;20563;-78
2022/05/22 02:10:42;;;;;;;7.70;6.63;;;;;;;;;;4903940;29;20503;-78
2022/05/22 02:13:11;;;;;;;7.80;6.90;;;;;;;;;;4907402;29;20448;-78
2022/05/22 02:15:38;;;;;;;6.93;6.23;;;;;;;;;;4920626;29;20456;-78
2022/05/22 02:18:04;;;;;;;7.47;6.27;;;;;;;;;;4937470;29;20451;-78
2022/05/22 02:20:31;;;;;;;7.37;6.33;;;;;;;;;;4953133;29;20551;-78
2022/05/22 02:22:58;;;;;;;6.37;5.70;;;;;;;;;;4932326;29;20467;-78
2022/05/22 02:25:30;;;;;;;7.10;6.40;;;;;;;;;;4889798;29;20464;-78
2022/05/22 02:28:05;;;;;;;6.80;6.20;;;;;;;;;;4918640;29;20485;-78
2022/05/22 02:30:35;;;;;;;6.40;5.80;;;;;;;;;;4899538;29;20577;-78
2022/05/22 02:33:02;;;;;;;7.67;6.67;;;;;;;;;;4933987;29;20861;-78
2022/05/22 02:35:34;;;;;;;9.63;6.90;;;;;;;;;;4913651;29;20470;-78
2022/05/22 02:38:10;;;;;;;7.17;6.50;;;;;;;;;;4922768;29;20813;-78
2022/05/22 02:40:47;;;;;;;7.47;6.30;;;;;;;;;;4918025;29;20534;-78
2022/05/22 02:43:14;;;;;;;7.40;6.70;;;;;;;;;;4919051;29;20504;-78
2022/05/22 02:45:45;;;;;;;7.53;6.83;;;;;;;;;;4920068;29;20456;-78
2022/05/22 02:48:14;;;;;;;7.70;7.00;;;;;;;;;;4902254;29;20480;-78
2022/05/22 02:50:53;;;;;;;8.50;7.20;;;;;;;;;;4927790;29;20456;-78
2022/05/22 02:53:20;;;;;;;7.27;6.57;;;;;;;;;;4917521;29;20456;-78
2022/05/22 02:56:08;;;;;;;6.57;6.07;;;;;;;;;;4933682;29;20444;-78
2022/05/22 02:58:45;;;;;;;7.93;7.17;;;;;;;;;;4918258;29;20896;-78
2022/05/22 03:01:12;;;;;;;8.03;7.23;;;;;;;;;;4918273;29;20955;-78
2022/05/22 03:03:39;;;;;;;7.30;6.57;;;;;;;;;;4932772;29;20480;-78
2022/05/22 03:08:51;;;;;;;6.57;5.97;;;;;;;;;;4917747;29;20429;-78
2022/05/22 03:11:17;;;;;;;6.43;5.90;;;;;;;;;;4908525;29;20494;-78
2022/05/22 03:13:44;;;;;;;7.73;7.03;;;;;;;;;;4920280;29;20449;-78
2022/05/22 03:16:16;;;;;;;6.93;6.30;;;;;;;;;;4883128;29;20448;-77
2022/05/22 03:19:03;;;;;;;7.07;6.47;;;;;;;;;;4883422;29;20468;-78
2022/05/22 03:21:30;;;;;;;8.33;6.90;;;;;;;;;;4908420;29;20474;-78
2022/05/22 03:24:00;;;;;;;6.87;6.10;;;;;;;;;;4917049;29;20460;-78
2022/05/22 03:26:26;;;;;;;6.20;5.70;;;;;;;;;;4917322;29;20452;-78
2022/05/22 03:28:53;;;;;;;7.00;6.40;;;;;;;;;;4917681;29;20444;-78
2022/05/22 03:31:22;;;;;;;7.87;6.53;;;;;;;;;;4916312;29;20463;-78
2022/05/22 03:33:51;;;;;;;7.23;6.63;;;;;;;;;;4917104;29;20843;-78
2022/05/22 03:36:18;;;;;;;6.40;5.80;;;;;;;;;;4911581;29;20807;-78
2022/05/22 03:38:44;;;;;;;7.30;6.60;;;;;;;;;;4917680;29;20543;-78
2022/05/22 03:41:14;;;;;;;6.77;6.17;;;;;;;;;;4928354;29;20491;-78
2022/05/22 03:43:41;;;;;;;5.83;5.30;;;;;;;;;;4932672;29;20444;-78
2022/05/22 03:46:31;;;;;;;7.33;6.53;;;;;;;;;;4931362;29;20436;-78
2022/05/22 03:48:59;;;;;;;8.53;6.37;;;;;;;;;;4910058;29;20546;-78
2022/05/22 03:51:32;;;;;;;6.77;6.00;;;;;;;;;;4903575;29;20661;-78
2022/05/22 03:53:59;;;;;;;6.30;5.40;;;;;;;;;;4933813;29;20838;-78
2022/05/22 03:56:30;;;;;;;5.70;5.30;;;;;;;;;;4916944;29;20460;-78
2022/05/22 03:58:57;;;;;;;6.63;5.70;;;;;;;;;;4920181;29;20447;-78
2022/05/22 04:01:24;;;;;;;6.67;5.97;;;;;;;;;;4953760;29;20447;-78
2022/05/22 04:03:58;;;;;;;6.87;6.27;;;;;;;;;;4903389;29;20471;-78
2022/05/22 04:06:25;;;;;;;6.30;5.70;;;;;;;;;;4907668;29;20467;-78
2022/05/22 04:08:52;;;;;;;7.70;6.90;;;;;;;;;;4917725;29;20461;-78
2022/05/22 04:11:26;;;;;;;6.63;6.03;;;;;;;;;;4897316;29;20525;-79
2022/05/22 04:13:57;;;;;;;8.60;5.73;;;;;;;;;;4900027;29;20437;-79
2022/05/22 04:16:24;;;;;;;6.53;5.93;;;;;;;;;;4928561;29;20449;-79
2022/05/22 04:18:50;;;;;;;8.40;6.10;;;;;;;;;;4914204;29;20462;-79
2022/05/22 04:21:18;;;;;;;6.63;6.00;;;;;;;;;;4933219;29;20463;-79
2022/05/22 04:26:39;;;;;;;6.03;5.53;;;;;;;;;;4908338;29;20458;-79
2022/05/22 04:29:09;;;;;;;6.53;5.90;;;;;;;;;;4905425;29;20447;-79
2022/05/22 04:31:36;;;;;;;8.00;5.93;;;;;;;;;;4920542;29;20452;-79
2022/05/22 04:34:12;;;;;;;6.50;5.90;;;;;;;;;;4920459;29;20451;-79
2022/05/22 04:36:40;;;;;;;6.17;5.67;;;;;;;;;;4919430;29;20452;-79
2022/05/22 04:39:08;;;;;;;6.60;6.00;;;;;;;;;;4922800;29;20451;-79
2022/05/22 04:41:34;;;;;;;6.50;5.90;;;;;;;;;;4924262;29;20815;-79
2022/05/22 04:44:01;;;;;;;5.57;5.03;;;;;;;;;;4946237;29;20448;-79
2022/05/22 04:46:29;;;;;;;6.30;5.47;;;;;;;;;;4928188;29;20468;-79
2022/05/22 04:48:55;;;;;;;6.20;5.57;;;;;;;;;;4934581;29;20496;-79
2022/05/22 04:51:22;;;;;;;6.30;5.70;;;;;;;;;;4936127;29;20483;-79
2022/05/22 04:53:53;;;;;;;8.43;6.20;;;;;;;;;;4919823;29;20555;-79
2022/05/22 04:56:38;;;;;;;6.47;5.50;;;;;;;;;;4930770;29;20469;-79
2022/05/22 04:59:22;;;;;;;5.87;5.37;;;;;;;;;;4935602;29;20539;-79
2022/05/22 05:01:48;;;;;;;6.90;6.20;;;;;;;;;;4907005;29;20813;-79
2022/05/22 05:04:17;;;;;;;5.90;5.33;;;;;;;;;;4921720;29;20485;-79
2022/05/22 05:07:04;;;;;;;6.50;5.90;;;;;;;;;;4929410;29;20476;-79
2022/05/22 05:09:59;;;;;;;6.00;5.37;;;;;;;;;;4895834;29;20558;-79
2022/05/22 05:12:40;;;;;;;5.50;4.60;;;;;;;;;;4885855;29;20453;-79
2022/05/22 05:15:07;;;;;;;5.40;4.90;;;;;;;;;;4907064;29;20495;-79
2022/05/22 05:17:34;;;;;;;5.53;4.70;;;;;;;;;;4930557;29;20507;-79
2022/05/22 05:20:01;;;;;;;5.27;4.20;;;;;;;;;;4906699;29;20531;-79
2022/05/22 05:22:33;;;;;;;4.73;4.33;;;;;;;;;;4920009;29;20463;-79
2022/05/22 05:25:13;;;;;;;5.40;4.90;;;;;;;;;;4935173;29;20926;-79
2022/05/22 05:27:40;;;;;;;4.50;4.10;;;;;;;;;;4936333;29;20468;-79
2022/05/22 05:30:14;;;;;;;7.17;4.90;;;;;;;;;;4903654;29;20451;-79
2022/05/22 05:32:45;;;;;;;4.30;3.90;;;;;;;;;;4913576;29;20471;-79
2022/05/22 05:35:32;;;;;;;4.50;4.10;;;;;;;;;;4930488;29;20463;-79
2022/05/22 05:38:00;;;;;;;5.67;5.13;;;;;;;;;;4919088;29;20448;-79
2022/05/22 05:40:28;;;;;;;4.90;4.50;;;;;;;;;;4918847;29;20487;-79
2022/05/22 05:42:55;;;;;;;4.77;4.37;;;;;;;;;;4938759;29;20451;-79
2022/05/22 05:45:22;;;;;;;6.03;4.87;;;;;;;;;;4918531;29;20539;-79
2022/05/22 05:47:52;;;;;;;8.13;4.63;;;;;;;;;;4934028;29;20476;-79
2022/05/22 05:50:31;;;;;;;5.70;5.20;;;;;;;;;;4906355;29;20534;-78
2022/05/22 05:53:20;;;;;;;8.13;4.60;;;;;;;;;;4918962;29;20448;-79
2022/05/22 05:56:09;;;;;;;5.40;4.90;;;;;;;;;;4924690;29;20837;-78
2022/05/22 05:58:49;;;;;;;5.03;4.63;;;;;;;;;;4910515;29;20518;-78
2022/05/22 06:01:34;;;;;;;6.33;5.47;;;;;;;;;;4934039;29;20488;-78
2022/05/22 06:04:00;;;;;;;5.57;5.07;;;;;;;;;;4936091;29;20538;-78
2022/05/22 06:06:29;;;;;;;5.33;4.83;;;;;;;;;;4919150;29;20449;-79
2022/05/22 06:08:58;;;;;;;5.30;4.80;;;;;;;;;;4904451;29;21368;-79
2022/05/22 06:11:32;;;;;;;5.80;5.30;;;;;;;;;;4935382;29;20444;-79
2022/05/22 06:14:05;;;;;;;5.63;4.00;;;;;;;;;;4918706;29;20471;-79
2022/05/22 06:16:32;;;;;;;4.50;4.10;;;;;;;;;;4903055;29;20448;-79
2022/05/22 06:19:03;;;;;;;4.40;4.00;;;;;;;;;;4925481;29;20446;-79
2022/05/22 06:21:29;;;;;;;5.30;3.90;;;;;;;;;;4929237;29;20543;-79
2022/05/22 06:23:56;;;;;;;3.90;3.53;;;;;;;;;;4899474;29;20837;-79
2022/05/22 06:26:45;;;;;;;3.83;3.57;;;;;;;;;;4922958;29;20467;-79
2022/05/22 06:29:37;;;;;;;3.33;3.03;;;;;;;;;;4916002;29;20542;-79
2022/05/22 06:32:20;;;;;;;3.90;3.60;;;;;;;;;;4937423;29;21013;-80
2022/05/22 06:35:05;;;;;;;4.20;3.80;;;;;;;;;;4922298;29;20432;-80
2022/05/22 06:37:51;;;;;;;4.00;3.60;;;;;;;;;;4937972;29;20464;-80
2022/05/22 06:40:53;;;;;;;3.93;3.53;;;;;;;;;;4902347;29;20479;-80
2022/05/22 06:43:53;;;;;;;4.43;3.27;;;;;;;;;;4874295;29;20456;-79
2022/05/22 06:46:30;;;;;;;3.63;3.33;;;;;;;;;;4911160;29;20463;-80
2022/05/22 06:49:29;;;;;;;3.43;3.10;;;;;;;;;;4914629;29;20465;-80
2022/05/22 06:52:21;;;;;;;5.10;3.10;;;;;;;;;;4925566;29;20452;-80
2022/05/22 06:54:58;;;;;;;3.10;2.90;;;;;;;;;;4935091;29;20460;-79
2022/05/22 06:57:37;;;;;;;3.13;2.70;;;;;;;;;;4907944;29;20460;-79
2022/05/22 07:00:38;;;;;;;3.13;2.90;;;;;;;;;;4891582;29;20458;-81
2022/05/22 07:03:23;;;;;;;4.60;3.40;;;;;;;;;;4934592;29;20431;-81
2022/05/22 07:06:15;;;;;;;3.30;3.03;;;;;;;;;;4928993;29;20491;-80
2022/05/22 07:09:08;;;;;;;3.00;2.70;;;;;;;;;;4872937;29;20483;-79
2022/05/22 07:11:53;;;;;;;3.63;3.00;;;;;;;;;;4898638;29;20457;-80
2022/05/22 07:14:38;;;;;;;5.93;3.40;;;;;;;;;;4901572;29;20946;-80
2022/05/22 07:17:23;;;;;;;3.53;3.23;;;;;;;;;;4900883;29;20538;-79
2022/05/22 07:19:57;;;;;;;3.17;2.87;;;;;;;;;;4903629;29;20494;-80
2022/05/22 07:22:46;;;;;;;5.00;3.27;;;;;;;;;;4936432;29;20452;-79
2022/05/22 07:25:31;;;;;;;3.97;3.13;;;;;;;;;;4917692;29;20455;-79
2022/05/22 07:28:03;;;;;;;3.47;3.17;;;;;;;;;;4934353;29;20821;-80
2022/05/22 07:30:57;;;;;;;3.80;3.10;;;;;;;;;;4928919;29;20990;-80
2022/05/22 07:33:51;;;;;;;4.93;3.00;;;;;;;;;;4916426;29;20962;-80
2022/05/22 07:36:32;;;;;;;3.37;2.77;;;;;;;;;;4918783;29;20757;-80
2022/05/22 07:39:17;;;;;;;4.00;3.40;;;;;;;;;;4934123;29;20416;-80
2022/05/22 07:42:10;;;;;;;5.07;4.60;;;;;;;;;;4918745;29;20610;-80
2022/05/22 07:44:55;;;;;;;3.17;2.50;;;;;;;;;;4931352;29;20464;-81
2022/05/22 07:47:43;;;;;;;3.17;2.50;;;;;;;;;;4922155;29;20496;-81
2022/05/22 07:50:24;;;;;;;3.17;2.97;;;;;;;;;;4905958;29;20460;-81
2022/05/22 07:52:51;;;;;;;3.60;2.90;;;;;;;;;;4929858;29;20444;-81
2022/05/22 07:55:39;;;;;;;3.60;2.60;;;;;;;;;;4918117;29;20459;-81
2022/05/22 07:58:25;;;;;;;2.50;2.30;;;;;;;;;;4952817;29;20503;-81
2022/05/22 08:01:04;;;;;;;2.77;2.57;;;;;;;;;;4930060;29;20527;-81
2022/05/22 08:03:49;;;;;;;3.47;3.17;;;;;;;;;;4940512;29;20825;-81
2022/05/22 08:06:40;;;;;;;3.27;2.93;;;;;;;;;;4941622;29;20440;-81
2022/05/22 08:09:29;;;;;;;2.97;2.67;;;;;;;;;;4927251;29;20479;-81
2022/05/22 08:11:56;;;;;;;3.47;3.10;;;;;;;;;;4920874;29;20455;-81
2022/05/22 08:14:23;;;;;;;3.27;2.90;;;;;;;;;;4908212;29;20451;-81
2022/05/22 08:16:51;;;;;;;2.70;2.50;;;;;;;;;;4937230;29;20884;-81
2022/05/22 08:19:21;;;;;;;2.97;2.77;;;;;;;;;;4920141;29;20861;-81
2022/05/22 08:22:15;;;;;;;2.50;2.30;;;;;;;;;;4912762;29;21002;-81
2022/05/22 08:25:16;;;;;;;2.67;2.47;;;;;;;;;;4904313;29;20444;-81
2022/05/22 08:27:43;;;;;;;2.80;2.60;;;;;;;;;;4900619;29;20939;-81
2022/05/22 08:30:11;;;;;;;2.80;2.60;;;;;;;;;;4905500;29;20841;-81
2022/05/22 08:32:38;;;;;;;3.50;3.07;;;;;;;;;;4918942;29;20571;-81
2022/05/22 08:35:05;;;;;;;2.83;2.63;;;;;;;;;;4934952;29;20451;-81
2022/05/22 08:37:34;;;;;;;3.00;2.40;;;;;;;;;;4920045;29;20452;-81
2022/05/22 08:40:02;;;;;;;3.20;3.00;;;;;;;;;;4920289;29;20814;-81
2022/05/22 08:42:34;;;;;;;3.27;2.87;;;;;;;;;;4945750;29;20460;-81
2022/05/22 08:45:01;;;;;;;3.10;2.90;;;;;;;;;;4919521;29;20451;-81
2022/05/22 08:47:39;;;;;;;3.57;2.83;;;;;;;;;;4919138;29;20503;-81
2022/05/22 08:50:08;;;;;;;2.90;2.53;;;;;;;;;;4934580;29;20479;-81
2022/05/22 08:52:39;;;;;;;2.73;2.53;;;;;;;;;;4936857;29;20464;-81
2022/05/22 08:55:08;;;;;;;4.00;2.60;;;;;;;;;;4936617;29;20431;-80
2022/05/22 09:00:23;;;;;;;2.97;2.73;;;;;;;;;;4918762;29;20452;-80
2022/05/22 09:02:54;;;;;;;3.10;2.87;;;;;;;;;;4919868;29;20448;-79
2022/05/22 09:05:22;;;;;;;2.87;2.67;;;;;;;;;;4933947;29;20476;-80
2022/05/22 09:07:53;;;;;;;4.83;3.50;;;;;;;;;;4937179;29;20507;-79
2022/05/22 09:10:21;;;;;;;2.73;2.53;;;;;;;;;;4921422;29;20455;-79
2022/05/22 09:13:02;;;;;;;5.13;2.60;;;;;;;;;;4919753;29;20526;-80
2022/05/22 09:15:35;;;;;;;3.23;2.93;;;;;;;;;;4917421;29;20488;-80
2022/05/22 09:18:04;;;;;;;2.83;2.63;;;;;;;;;;4917369;29;20474;-80
2022/05/22 09:20:35;;;;;;;2.60;2.40;;;;;;;;;;4925544;29;20448;-80
2022/05/22 09:23:11;;;;;;;2.50;2.30;;;;;;;;;;4936166;29;20455;-80
2022/05/22 09:25:45;;;;;;;4.00;2.70;;;;;;;;;;4936218;29;20439;-80
2022/05/22 09:28:16;;;;;;;2.67;2.47;;;;;;;;;;4935280;29;20452;-80
2022/05/22 09:30:45;;;;;;;3.13;2.43;;;;;;;;;;4911415;29;20500;-80
2022/05/22 09:33:15;;;;;;;2.60;2.40;;;;;;;;;;4935512;29;20460;-80
2022/05/22 09:35:49;;;;;;;3.60;2.83;;;;;;;;;;4935958;29;20515;-80
2022/05/22 09:38:28;;;;;;;2.87;2.57;;;;;;;;;;4927927;29;20471;-80
2022/05/22 09:41:00;;;;;;;2.40;2.20;;;;;;;;;;4922192;29;20449;-80
2022/05/22 09:43:44;;;;;;;3.47;2.50;;;;;;;;;;4920353;29;20463;-81
2022/05/22 09:46:16;;;;;;;3.23;2.97;;;;;;;;;;4918441;29;20555;-80
2022/05/22 09:48:51;;;;;;;2.80;2.37;;;;;;;;;;4926682;29;20461;-80
2022/05/22 09:51:21;;;;;;;2.90;2.60;;;;;;;;;;4934764;29;20796;-80
2022/05/22 09:54:02;;;;;;;2.47;2.27;;;;;;;;;;4922174;29;20937;-80
2022/05/22 09:56:36;;;;;;;2.77;2.57;;;;;;;;;;4902998;29;20469;-80
2022/05/22 09:59:17;;;;;;;3.13;2.73;;;;;;;;;;4921572;29;20443;-80
2022/05/22 10:01:45;;;;;;;2.80;2.37;;;;;;;;;;4925433;29;20547;-82
2022/05/22 10:04:20;;;;;;;2.73;2.53;;;;;;;;;;4931239;29;20582;-80
2022/05/22 10:06:50;;;;;;;3.93;2.63;;;;;;;;;;4955226;29;20821;-81
2022/05/22 10:09:22;;;;;;;4.53;2.93;;;;;;;;;;4913433;29;20499;-80
2022/05/22 10:11:57;;;;;;;3.00;2.80;;;;;;;;;;4921124;29;20792;-79
2022/05/22 10:14:30;;;;;;;2.50;2.30;;;;;;;;;;4936579;29;20448;-81
2022/05/22 10:17:03;;;;;;;2.70;2.50;;;;;;;;;;4918067;29;20455;-82
2022/05/22 10:19:35;;;;;;;4.40;2.80;;;;;;;;;;4925725;29;20450;-81
2022/05/22 10:22:06;;;;;;;3.67;2.87;;;;;;;;;;4927418;29;20464;-79
2022/05/22 10:24:51;;;;;;;3.50;2.50;;;;;;;;;;4934312;29;20433;-79
2022/05/22 10:27:30;;;;;;;3.23;2.93;;;;;;;;;;4931112;29;20555;-79
2022/05/22 10:30:00;;;;;;;2.40;2.20;;;;;;;;;;4931940;29;20881;-79
2022/05/22 10:32:29;;;;;;;2.70;2.50;;;;;;;;;;4928877;29;20452;-79
2022/05/22 10:35:01;;;;;;;3.43;2.93;;;;;;;;;;4920072;29;20443;-79
2022/05/22 10:37:31;;;;;;;3.87;2.90;;;;;;;;;;4918332;29;20456;-79
2022/05/22 10:40:00;;;;;;;3.60;2.50;;;;;;;;;;4897485;29;20497;-79
2022/05/22 10:42:47;;;;;;;2.77;2.57;;;;;;;;;;4920514;29;20518;-81
2022/05/22 10:45:19;;;;;;;4.23;2.20;;;;;;;;;;4904474;29;20503;-81
2022/05/22 10:47:46;;;;;;;2.83;2.53;;;;;;;;;;4920083;29;20463;-81
2022/05/22 10:50:15;;;;;;;4.20;3.03;;;;;;;;;;4947059;29;20479;-81
2022/05/22 10:52:42;;;;;;;4.03;2.63;;;;;;;;;;4915985;29;20457;-79
2022/05/22 10:55:19;;;;;;;3.27;2.97;;;;;;;;;;4934893;29;20515;-78
2022/05/22 10:57:53;;;;;;;3.07;2.77;;;;;;;;;;4913741;29;20470;-78
2022/05/22 11:00:20;;;;;;;3.23;2.90;;;;;;;;;;4931211;29;20544;-79
2022/05/22 11:02:47;;;;;;;2.90;2.53;;;;;;;;;;4917516;29;20436;-79
2022/05/22 11:05:16;;;;;;;3.00;2.70;;;;;;;;;;4933134;29;20579;-79
2022/05/22 11:07:44;;;;;;;3.00;2.80;;;;;;;;;;4917418;29;20499;-79
2022/05/22 11:10:13;;;;;;;2.77;2.57;;;;;;;;;;4916489;29;20585;-79
2022/05/22 11:12:42;;;;;;;2.50;2.30;;;;;;;;;;4923098;29;20464;-79
2022/05/22 11:15:10;;;;;;;2.90;2.60;;;;;;;;;;4933383;29;20454;-79
2022/05/22 11:17:37;;;;;;;3.70;2.43;;;;;;;;;;4933838;29;20440;-79
2022/05/22 11:20:12;;;;;;;4.17;2.93;;;;;;;;;;4916090;29;20468;-79
2022/05/22 11:22:58;;;;;;;3.00;2.70;;;;;;;;;;4900888;29;20546;-79
2022/05/22 11:25:29;;;;;;;3.00;2.80;;;;;;;;;;4928767;29;20433;-79
2022/05/22 11:28:04;;;;;;;2.77;2.57;;;;;;;;;;4922630;29;20449;-79
2022/05/22 11:30:35;;;;;;;2.70;2.50;;;;;;;;;;4917609;29;20464;-79
2022/05/22 11:33:18;;;;;;;2.90;2.70;;;;;;;;;;4933181;29;20444;-79
2022/05/22 11:35:48;;;;;;;2.90;2.70;;;;;;;;;;4946506;28;21032;-79
2022/05/22 11:38:33;;;;;;;2.90;2.70;;;;;;;;;;4925735;29;20543;-80
2022/05/22 11:41:02;;;;;;;3.13;2.83;;;;;;;;;;4913687;29;20426;-80
2022/05/22 11:43:45;;;;;;;3.70;2.63;;;;;;;;;;4914072;29;20459;-79
2022/05/22 11:46:20;;;;;;;3.00;2.70;;;;;;;;;;4943913;29;20460;-78
2022/05/22 11:49:01;;;;;;;3.30;3.03;;;;;;;;;;4925963;29;20487;-79
2022/05/22 11:51:33;;;;;;;2.93;2.73;;;;;;;;;;4931579;29;20494;-79
2022/05/22 11:54:20;;;;;;;3.90;2.87;;;;;;;;;;4935039;29;20555;-79
2022/05/22 11:56:53;;;;;;;3.73;3.00;;;;;;;;;;4916686;29;20436;-79
2022/05/22 11:59:33;;;;;;;3.67;2.60;;;;;;;;;;4932979;29;20491;-79
2022/05/22 12:02:05;;;;;;;3.27;2.97;;;;;;;;;;4933335;29;20459;-79
2022/05/22 12:04:50;;;;;;;3.03;2.73;;;;;;;;;;4913934;29;20495;-79
2022/05/22 12:07:42;;;;;;;3.33;3.03;;;;;;;;;;4912849;29;20456;-79
2022/05/22 12:10:10;;;;;;;3.60;3.30;;;;;;;;;;4894446;29;20493;-79
2022/05/22 12:12:39;;;;;;;4.83;2.70;;;;;;;;;;4912837;29;20441;-79
2022/05/22 12:15:12;;;;;;;2.80;2.60;;;;;;;;;;4910788;29;20572;-79
2022/05/22 12:17:43;;;;;;;2.40;2.20;;;;;;;;;;4926085;29;20520;-79
2022/05/22 12:20:13;;;;;;;3.07;2.77;;;;;;;;;;4907482;29;20544;-79
2022/05/22 12:25:28;;;;;;;4.93;3.27;;;;;;;;;;4913283;29;20456;-79
2022/05/22 12:27:56;;;;;;;3.00;2.70;;;;;;;;;;4908364;29;20560;-79
2022/05/22 12:30:25;;;;;;;3.27;2.87;;;;;;;;;;4911608;29;20472;-78
2022/05/22 12:32:55;;;;;;;4.53;2.90;;;;;;;;;;4911957;29;20449;-78
2022/05/22 12:35:24;;;;;;;4.50;2.87;;;;;;;;;;4915655;29;20460;-79
2022/05/22 12:37:53;;;;;;;5.07;3.30;;;;;;;;;;4914284;29;20477;-78
2022/05/22 12:40:28;;;;;;;3.17;2.97;;;;;;;;;;4900985;29;21027;-78
2022/05/22 12:42:56;;;;;;;4.47;2.83;;;;;;;;;;4911439;29;20892;-78
2022/05/22 12:45:24;;;;;;;3.50;3.20;;;;;;;;;;4916990;29;20457;-79
2022/05/22 12:47:51;;;;;;;4.93;2.77;;;;;;;;;;4915138;29;20441;-79
2022/05/22 12:50:32;;;;;;;4.17;3.00;;;;;;;;;;4905461;29;20478;-78
2022/05/22 12:52:59;;;;;;;2.90;2.70;;;;;;;;;;4907496;29;20441;-78
2022/05/22 12:55:29;;;;;;;3.00;2.77;;;;;;;;;;4931837;29;20462;-78
2022/05/22 12:57:56;;;;;;;2.90;2.70;;;;;;;;;;4912274;29;20488;-80
2022/05/22 13:00:37;;;;;;;3.80;2.90;;;;;;;;;;4912644;29;20851;-81
2022/05/22 13:03:09;;;;;;;2.70;2.50;;;;;;;;;;4923959;29;20471;-79
2022/05/22 13:05:36;;;;;;;3.83;3.53;;;;;;;;;;4913531;29;20527;-79
2022/05/22 13:08:13;;;;;;;4.10;2.80;;;;;;;;;;4915481;29;20445;-79
2022/05/22 13:10:44;;;;;;;2.57;2.37;;;;;;;;;;4907152;29;20477;-79
2022/05/22 13:13:12;;;;;;;2.93;2.43;;;;;;;;;;4902292;29;20431;-79
2022/05/22 13:15:50;;;;;;;2.67;2.47;;;;;;;;;;4876160;29;20458;-79
2022/05/22 13:18:18;;;;;;;3.73;2.50;;;;;;;;;;4888257;29;20474;-79
2022/05/22 13:20:48;;;;;;;3.33;2.63;;;;;;;;;;4894287;29;20458;-79
2022/05/22 13:23:25;;;;;;;5.03;3.00;;;;;;;;;;4893185;29;20493;-79
2022/05/22 13:25:53;;;;;;;2.67;2.40;;;;;;;;;;4892311;29;20498;-79
2022/05/22 13:28:21;;;;;;;2.47;2.27;;;;;;;;;;4898608;29;20584;-79
2022/05/22 13:30:52;;;;;;;4.40;2.90;;;;;;;;;;4914718;29;20507;-79
2022/05/22 13:33:18;;;;;;;2.77;2.30;;;;;;;;;;4897069;29;20848;-78
2022/05/22 13:35:52;;;;;;;6.50;2.43;;;;;;;;;;4896702;29;20457;-79
2022/05/22 13:38:18;;;;;;;3.17;2.63;;;;;;;;;;4878906;29;20467;-79
2022/05/22 13:40:50;;;;;;;2.40;2.20;;;;;;;;;;4878380;29;20518;-80
2022/05/22 13:43:40;;;;;;;2.30;2.10;;;;;;;;;;4893954;29;20454;-79
2022/05/22 13:46:25;;;;;;;4.23;2.63;;;;;;;;;;4898318;29;20551;-79
2022/05/22 13:49:00;;;;;;;6.23;2.33;;;;;;;;;;4908421;29;20457;-79
2022/05/22 13:54:24;;;;;;;3.00;2.80;;;;;;;;;;4887128;29;20960;-79
2022/05/22 13:56:52;;;;;;;2.67;2.47;;;;;;;;;;4890653;29;20454;-79
2022/05/22 13:59:21;;;;;;;3.63;2.63;;;;;;;;;;4892993;29;20462;-79
2022/05/22 14:01:48;;;;;;;2.87;2.53;;;;;;;;;;4896566;29;20533;-79
2022/05/22 14:04:17;;;;;;;2.97;2.67;;;;;;;;;;4912837;29;20518;-79
2022/05/22 14:06:43;;;;;;;3.03;2.77;;;;;;;;;;4929044;29;20550;-79
2022/05/22 14:09:18;;;;;;;2.93;2.40;;;;;;;;;;4929193;29;20448;-79
2022/05/22 14:11:52;;;;;;;3.60;2.50;;;;;;;;;;4918523;29;20558;-79
2022/05/22 14:14:20;;;;;;;2.83;2.43;;;;;;;;;;4914712;29;20489;-79
2022/05/22 14:16:51;;;;;;;3.17;2.87;;;;;;;;;;4916714;29;20536;-78
2022/05/22 14:19:25;;;;;;;2.60;2.40;;;;;;;;;;4928513;29;20548;-79
2022/05/22 14:21:51;;;;;;;2.63;2.43;;;;;;;;;;4935443;29;20429;-78
2022/05/22 14:27:06;;;;;;;3.87;3.20;;;;;;;;;;4914412;29;20448;-79
2022/05/22 14:29:33;;;;;;;2.93;2.73;;;;;;;;;;4932562;29;20535;-78
2022/05/22 14:32:00;;;;;;;2.43;2.23;;;;;;;;;;4934109;29;20493;-79
2022/05/22 14:34:29;;;;;;;2.83;2.63;;;;;;;;;;4934066;29;20465;-79
2022/05/22 14:36:59;;;;;;;3.30;2.27;;;;;;;;;;4931378;29;20496;-78
2022/05/22 14:39:25;;;;;;;2.73;2.40;;;;;;;;;;4932735;29;20519;-79
2022/05/22 14:41:52;;;;;;;2.50;2.30;;;;;;;;;;4898514;29;20444;-79
2022/05/22 14:44:26;;;;;;;2.60;2.20;;;;;;;;;;4929862;29;20483;-79
2022/05/22 14:46:54;;;;;;;3.10;2.80;;;;;;;;;;4917088;29;20456;-79
2022/05/22 14:49:29;;;;;;;3.53;2.53;;;;;;;;;;4931074;29;20460;-79
2022/05/22 14:51:59;;;;;;;3.17;2.40;;;;;;;;;;4930222;29;20891;-79
2022/05/22 14:54:29;;;;;;;2.80;1.80;;;;;;;;;;4931197;29;21511;-79
2022/05/22 14:56:58;;;;;;;2.63;2.07;;;;;;;;;;4912373;29;20987;-79
2022/05/22 14:59:28;;;;;;;2.20;1.97;;;;;;;;;;4932007;29;20467;-80
2022/05/22 15:01:55;;;;;;;2.33;2.13;;;;;;;;;;4914506;29;20530;-79
2022/05/22 15:04:26;;;;;;;3.27;2.50;;;;;;;;;;4932503;29;20488;-79
2022/05/22 15:07:00;;;;;;;2.40;2.30;;;;;;;;;;4912801;29;20436;-79
2022/05/22 15:09:28;;;;;;;3.13;2.17;;;;;;;;;;4915267;29;20786;-79
2022/05/22 15:11:54;;;;;;;4.27;2.07;;;;;;;;;;4931351;29;20476;-79
2022/05/22 15:14:26;;;;;;;2.50;2.30;;;;;;;;;;4933002;29;20471;-79
2022/05/22 15:16:55;;;;;;;2.90;2.70;;;;;;;;;;4915854;29;20444;-80
2022/05/22 15:27:53;;;;;;;3.40;2.43;;;;;;;;;;4932792;29;20448;-79
2022/05/22 15:30:23;;;;;;;3.53;2.17;;;;;;;;;;4933546;29;20471;-79
2022/05/22 15:32:50;;;;;;;2.93;1.97;;;;;;;;;;4910485;29;20467;-79
2022/05/22 15:35:21;;;;;;;2.60;2.40;;;;;;;;;;4913895;29;20466;-80
2022/05/22 15:37:49;;;;;;;2.60;2.30;;;;;;;;;;4929623;29;20444;-79
2022/05/22 15:40:17;;;;;;;2.40;1.87;;;;;;;;;;4914066;29;20441;-79
2022/05/22 15:42:58;;;;;;;2.80;2.10;;;;;;;;;;4932316;29;20828;-79
2022/05/22 15:45:25;;;;;;;3.43;2.10;;;;;;;;;;4933767;29;20535;-79